• Join FlightAware (Why Join?)
  • Login
  • US Flag 
12:40AM EDT


 

Airport Tracker/Info


-or-


 

Live Flight TrackerFlight Track Log ✈ AFR6725 ✈ 11-May-2013 ✈ KIAH - LFPG / CDG

Flight Track Log - Related Links

Times and Time Zones

All times are in EDT time to prevent confusion due to time zone crossing. See the AFR6725 flight status page for this flight to view local times or setup timezone preferences in your user account.

Time Position Orientation Groundspeed Altitude Reporting Facility
EDT Latitude Longitude Course Direction KTS MPH feet Rate Location/Type
09:10AM 29.9529 -95.3371 152° Southeast 173 199 700  Level FlightAware ADS-B
09:10AM 29.9500 -95.3362 165° South 177 204 800 1,680 Climbing FlightAware ADS-B
09:10AM 29.9471 -95.3358 173° South 184 212 900 660 Climbing FlightAware ADS-B
09:11AM 29.9422 -95.3366 188° South 191 220 900 660 Level FlightAware ADS-B
09:11AM 29.9390 -95.3378 198° South 193 222 1,000 1,200 Climbing FlightAware ADS-B
09:11AM 29.9344 -95.3414 214° Southwest 197 227 1,100 1,320 Climbing FlightAware ADS-B
09:11AM 29.9325 -95.3438 228° Southwest 198 228 1,200 1,680 Climbing FlightAware ADS-B
09:11AM 29.9305 -95.3475 238° Southwest 199 229 1,300 2,220 Climbing FlightAware ADS-B
09:11AM 29.9291 -95.3514 248° West 199 229 1,500 1,800 Climbing FlightAware ADS-B
09:11AM 29.9282 -95.3572 260° West 200 230 1,600 960 Climbing FlightAware ADS-B
09:11AM 29.9285 -95.3633 273° West 197 227 1,700 1,320 Climbing FlightAware ADS-B
09:11AM 29.9292 -95.3666 284° West 198 228 1,800 960 Climbing FlightAware ADS-B
09:11AM 29.9304 -95.3699 293° West 200 230 1,800 660 Level FlightAware ADS-B
09:11AM 29.9333 -95.3751 303° West 203 234 1,900 600 Climbing FlightAware ADS-B
09:11AM 29.9357 -95.3781 313° West 203 234 1,900  Level FlightAware ADS-B
09:11AM 29.9415 -95.3823 328° Northwest 207 238 1,900 540 Level FlightAware ADS-B
09:12AM 29.9450 -95.3837 341° North 210 242 2,000 1,500 Climbing FlightAware ADS-B
09:12AM 29.9489 -95.3845 350° North 210 242 2,100 1,320 Climbing FlightAware ADS-B
09:12AM 29.9537 -95.3846 359° North 211 243 2,200 1,020 Climbing FlightAware ADS-B
09:12AM 29.9652 -95.3842 North 217 250 2,400 1,080 Climbing FlightAware ADS-B
09:12AM 29.9759 -95.3836 North 228 262 2,600 660 Climbing FlightAware ADS-B
09:12AM 29.9938 -95.3828 North 246 283 2,700 660 Climbing FlightAware ADS-B
09:12AM 30.0047 -95.3820 North 256 295 2,900 840 Climbing FlightAware ADS-B
09:13AM 30.0094 -95.3811 North 260 299 2,900 720 Level FlightAware ADS-B
09:13AM 30.0148 -95.3794 15° North 265 305 3,000 720 Climbing FlightAware ADS-B
09:13AM 30.0194 -95.3772 22° Northeast 269 310 3,000  Level FlightAware ADS-B
09:13AM 30.0237 -95.3743 30° Northeast 276 318 3,000 1,080 Level FlightAware ADS-B
09:13AM 30.0313 -95.3685 33° Northeast 282 325 3,200 1,800 Climbing FlightAware ADS-B
09:13AM 30.0347 -95.3655 37° Northeast 282 325 3,300 2,760 Climbing FlightAware ADS-B
09:13AM 30.0468 -95.3547 38° Northeast 280 322 3,900 2,760 Climbing FlightAware ADS-B
09:13AM 30.0630 -95.3405 37° Northeast 279 321 4,600 2,520 Climbing FlightAware ADS-B
09:14AM 30.0812 -95.3243 38° Northeast 286 329 5,300 2,160 Climbing FlightAware ADS-B
09:14AM 30.0979 -95.3090 38° Northeast 293 337 5,800 2,220 Climbing FlightAware ADS-B
09:14AM 30.1112 -95.2969 38° Northeast 292 336 6,400 2,520 Climbing FlightAware ADS-B
09:14AM 30.1271 -95.2823 38° Northeast 295 339 7,000 2,040 Climbing FlightAware ADS-B
09:15AM 30.1491 -95.2624 38° Northeast 306 352 7,600 1,860 Climbing FlightAware ADS-B
09:15AM 30.1660 -95.2469 38° Northeast 310 357 8,100 1,920 Climbing FlightAware ADS-B
09:15AM 30.1840 -95.2305 38° Northeast 315 362 8,600 1,920 Climbing FlightAware ADS-B
09:15AM 30.2017 -95.2143 38° Northeast 318 366 9,100 1,740 Climbing FlightAware ADS-B
09:16AM 30.2211 -95.1966 38° Northeast 327 376 9,500 1,620 Climbing FlightAware ADS-B
09:16AM 30.2405 -95.1785 39° Northeast 334 384 10,000 1,140 Climbing FlightAware ADS-B
09:17AM 30.2788 -95.1437 38° Northeast 363 418 10,400 960 Climbing FlightAware ADS-B
09:17AM 30.3200 -95.1062 38° Northeast 388 447 11,000 1,380 Climbing FlightAware ADS-B
09:18AM 30.3641 -95.0657 38° Northeast 406 467 11,800 1,740 Climbing FlightAware ADS-B
09:18AM 30.4092 -95.0239 39° Northeast 419 482 12,800 2,160 Climbing FlightAware ADS-B
09:19AM 30.4565 -94.9804 38° Northeast 427 491 14,000 2,400 Climbing FlightAware ADS-B
09:19AM 30.5052 -94.9358 38° Northeast 437 503 15,300 2,400 Climbing FlightAware ADS-B
09:20AM 30.5554 -94.8913 37° Northeast 447 514 16,500 2,280 Climbing FlightAware ADS-B
09:20AM 30.5872 -94.8655 35° Northeast 454 522 17,200 2,160 Climbing FlightAware ADS-B
09:20AM 30.6405 -94.8243 34° Northeast 463 533 18,300 2,160 Climbing FlightAware ADS-B
09:21AM 30.6954 -94.7823 33° Northeast 474 545 19,400 1,980 Climbing FlightAware ADS-B
09:21AM 30.7511 -94.7396 33° Northeast 486 559 20,300 1,860 Climbing FlightAware ADS-B
09:22AM 30.8091 -94.6950 33° Northeast 497 572 21,300 1,860 Climbing FlightAware ADS-B
09:22AM 30.8672 -94.6501 34° Northeast 506 582 22,200 1,680 Climbing FlightAware ADS-B
09:23AM 30.9266 -94.6042 34° Northeast 516 594 23,000 1,740 Climbing FlightAware ADS-B
09:23AM 30.9904 -94.5547 34° Northeast 525 604 24,000 1,740 Climbing FlightAware ADS-B
09:24AM 31.0571 -94.5028 34° Northeast 536 617 24,900 1,680 Climbing FlightAware ADS-B
09:25AM 31.1228 -94.4517 34° Northeast 544 626 25,800 1,560 Climbing FlightAware ADS-B
09:25AM 31.1879 -94.4012 34° Northeast 551 634 26,600 1,560 Climbing FlightAware ADS-B
09:26AM 31.2581 -94.3464 34° Northeast 559 643 27,500 1,440 Climbing FlightAware ADS-B
09:26AM 31.3495 -94.2750 34° Northeast 568 654 28,400 1,380 Climbing FlightAware ADS-B
09:27AM 31.3952 -94.2384 34° Northeast 571 657 29,000 1,620 Climbing FlightAware ADS-B
09:27AM 31.4406 -94.1960 39° Northeast 575 662 29,600 1,620 Climbing FlightAware ADS-B
09:27AM 31.4845 -94.1469 44° Northeast 577 664 30,200 1,440 Climbing FlightAware ADS-B
09:28AM 31.5370 -94.0746 50° Northeast 581 669 30,900 1,260 Climbing FlightAware ADS-B
09:28AM 31.5961 -93.9894 51° Northeast 585 673 31,600 1,200 Climbing FlightAware ADS-B
09:29AM 31.6511 -93.9094 51° Northeast 589 678 32,300 1,140 Climbing FlightAware ADS-B
09:30AM 31.7031 -93.8332 51° Northeast 591 680 32,800 420 Climbing FlightAware ADS-B
09:31AM 31.8048 -93.6836 51° Northeast 599 689 33,000 120 Climbing FlightAware ADS-B
09:31AM 31.8939 -93.5520 51° Northeast 593 682 33,100 60 Climbing FlightAware ADS-B
09:32AM 31.9308 -93.5003 51° Northeast 593 682 33,100 -180 Level Houston Center
09:32AM 31.9572 -93.4639 49° Northeast 592 681 33,000  Descending Fort Worth Center
09:33AM 32.0589 -93.3125 52° Northeast 592 681 33,100  Climbing Fort Worth Center
09:34AM 32.1625 -93.1606 51° Northeast 587 676 33,100 -60 Level Fort Worth Center
09:35AM 32.2636 -93.0086 52° Northeast 587 676 33,000 -60 Descending Fort Worth Center
09:36AM 32.3647 -92.8586 51° Northeast 587 676 33,000  Level Fort Worth Center
09:37AM 32.4656 -92.7008 53° Northeast 587 676 33,000  Level Fort Worth Center
09:38AM 32.5661 -92.5478 52° Northeast 587 676 33,000  Level Fort Worth Center
09:39AM 32.6628 -92.4044 51° Northeast 574 661 33,000  Level Fort Worth Center
09:42AM 32.9647 -91.9319 53° Northeast 574 661 33,000  Level Memphis Center
09:43AM 33.0647 -91.7800 52° Northeast 569 655 33,100  Climbing Memphis Center
09:44AM 33.1625 -91.6278 52° Northeast 574 661 33,000 -60 Descending Memphis Center
09:45AM 33.2597 -91.4778 52° Northeast 574 661 33,000  Level Memphis Center
09:46AM 33.3572 -91.3222 53° Northeast 579 666 33,000  Level Memphis Center
09:47AM 33.4564 -91.1689 52° Northeast 579 666 33,000  Level Memphis Center
09:48AM 33.5553 -91.0153 52° Northeast 579 666 33,100  Climbing Memphis Center
09:49AM 33.6519 -90.8614 53° Northeast 579 666 33,000 -60 Descending Memphis Center
09:50AM 33.7528 -90.7044 52° Northeast 579 666 33,000  Level Memphis Center
09:51AM 33.8594 -90.5322 53° Northeast 579 666 33,000  Level Memphis Center
09:52AM 33.9578 -90.3722 53° Northeast 585 673 33,000  Level Memphis Center
09:53AM 34.0558 -90.2167 53° Northeast 585 673 33,000  Level Memphis Center
09:54AM 34.1536 -90.0583 53° Northeast 590 679 33,000  Level Memphis Center
09:55AM 34.2511 -89.8947 54° Northeast 590 679 33,000  Level Memphis Center
09:56AM 34.3486 -89.7333 54° Northeast 590 679 33,000  Level Memphis Center
09:57AM 34.4478 -89.5714 53° Northeast 595 685 33,000  Level Memphis Center
09:58AM 34.5467 -89.4092 53° Northeast 595 685 33,000  Level Memphis Center
09:59AM 34.6456 -89.2439 54° Northeast 595 685 33,000  Level Memphis Center
10:00AM 34.7419 -89.0833 54° Northeast 595 685 33,000  Level Memphis Center
10:01AM 34.8425 -88.9200 53° Northeast 590 679 33,000  Level Memphis Center
10:07AM 35.4250 -87.9340 53° Northeast 604 695 33,000  Level FlightAware
10:08AM 35.4800 -87.8390 55° Northeast 605 696 33,000  Level FlightAware
10:09AM 35.5630 -87.6960 54° Northeast 606 697 33,000  Level FlightAware
10:09AM 35.6280 -87.5830 55° Northeast 606 697 33,000  Level FlightAware
10:10AM 35.6920 -87.4710 55° Northeast 606 697 33,000  Level FlightAware
10:11AM 35.7650 -87.3420 55° Northeast 606 697 33,000  Level FlightAware
10:11AM 35.8300 -87.2290 55° Northeast 605 696 33,000  Level FlightAware
10:12AM 35.8940 -87.1170 55° Northeast 603 694 33,000  Level FlightAware
10:13AM 35.9640 -86.9930 55° Northeast 602 693 33,000  Level FlightAware
10:13AM 36.0130 -86.9060 55° Northeast 603 694 33,000  Level FlightAware
10:14AM 36.0590 -86.8238 55° Northeast 604 695 33,000  Level FlightAware ADS-B
10:14AM 36.0964 -86.7571 55° Northeast 605 696 33,000  Level FlightAware ADS-B
10:15AM 36.1464 -86.6623 57° Northeast 606 697 33,000  Level FlightAware ADS-B
10:15AM 36.1930 -86.5730 57° Northeast 605 696 33,000  Level FlightAware
10:15AM 36.2032 -86.5520 59° Northeast 605 696 33,000 120 Level FlightAware ADS-B
10:16AM 36.2570 -86.4430 59° Northeast 606 697 33,100  Climbing FlightAware
10:16AM 36.3033 -86.3482 59° Northeast 607 699 33,000 -120 Descending FlightAware ADS-B
10:17AM 36.3552 -86.2401 59° Northeast 605 696 33,000  Level FlightAware ADS-B
10:18AM 36.4298 -86.0820 60° Northeast 602 693 33,000  Level FlightAware ADS-B
10:18AM 36.4731 -85.9902 60° Northeast 600 690 33,000  Level FlightAware ADS-B
10:19AM 36.5155 -85.9000 60° Northeast 599 689 33,000  Level FlightAware ADS-B
10:19AM 36.5530 -85.8200 60° Northeast 596 686 33,000  Level FlightAware
10:19AM 36.5595 -85.8064 59° Northeast 597 687 33,000  Level FlightAware ADS-B
10:20AM 36.6039 -85.7119 60° Northeast 596 686 33,000 60 Level FlightAware ADS-B
10:21AM 36.6489 -85.6160 60° Northeast 595 685 33,100  Climbing FlightAware ADS-B
10:21AM 36.6920 -85.5230 60° Northeast 594 684 33,000  Descending FlightAware
10:21AM 36.7103 -85.4851 59° Northeast 595 685 33,100  Climbing FlightAware ADS-B
10:22AM 36.7531 -85.3935 60° Northeast 593 682 33,000  Descending FlightAware ADS-B
10:22AM 36.7951 -85.3041 60° Northeast 588 677 33,100  Climbing FlightAware ADS-B
10:23AM 36.8375 -85.2149 59° Northeast 585 673 33,000 -120 Descending FlightAware ADS-B
10:23AM 36.8775 -85.1267 60° Northeast 585 673 33,000  Level FlightAware ADS-B
10:24AM 36.9175 -85.0382 60° Northeast 583 671 33,000 360 Level FlightAware ADS-B
10:24AM 36.9577 -84.9500 60° Northeast 587 676 33,400 900 Climbing FlightAware ADS-B
10:25AM 36.9981 -84.8615 60° Northeast 589 678 33,900 840 Climbing FlightAware ADS-B
10:25AM 37.0393 -84.7716 60° Northeast 594 684 34,300 960 Climbing FlightAware ADS-B
10:26AM 37.0801 -84.6824 60° Northeast 594 684 34,900 660 Climbing FlightAware ADS-B
10:26AM 37.1218 -84.5909 60° Northeast 596 686 35,000 60 Climbing FlightAware ADS-B
10:27AM 37.1629 -84.5007 60° Northeast 596 686 35,000  Level FlightAware ADS-B
10:27AM 37.2048 -84.4083 60° Northeast 594 684 35,000  Level FlightAware ADS-B
10:28AM 37.2454 -84.3183 60° Northeast 592 681 35,000  Level FlightAware ADS-B
10:28AM 37.2877 -84.2245 60° Northeast 592 681 35,000  Level FlightAware ADS-B
10:29AM 37.3285 -84.1338 60° Northeast 591 680 35,000  Level FlightAware ADS-B
10:29AM 37.3702 -84.0406 61° Northeast 591 680 35,000  Level FlightAware ADS-B
10:30AM 37.4167 -83.9364 61° Northeast 589 678 35,000  Level FlightAware ADS-B
10:31AM 37.4572 -83.8454 61° Northeast 589 678 35,000  Level FlightAware ADS-B
10:31AM 37.5017 -83.7450 61° Northeast 587 676 35,000  Level FlightAware ADS-B
10:32AM 37.5430 -83.6570 59° Northeast 587 676 35,000  Level FlightAware
10:33AM 37.6000 -83.5310 60° Northeast 587 676 35,000  Level FlightAware
10:33AM 37.6713 -83.3595 62° Northeast 35,000  Level FlightAware ADS-B
10:33AM 37.6886 -83.3198 61° Northeast 580 667 35,000  Level FlightAware ADS-B
10:37AM 37.9490 -82.7200 61° Northeast 576 663 35,000  Level FlightAware
10:38AM 38.0040 -82.5910 62° Northeast 575 662 35,000  Level FlightAware
10:38AM 38.0205 -82.5514 62° Northeast 576 663 35,000  Level FlightAware ADS-B
10:38AM 38.0594 -82.4602 62° Northeast 576 663 35,000  Level FlightAware ADS-B
10:39AM 38.0990 -82.3669 62° Northeast 575 662 35,000  Level FlightAware ADS-B
10:39AM 38.1373 -82.2765 62° Northeast 574 661 35,000  Level FlightAware ADS-B
10:40AM 38.1790 -82.1910 58° Northeast 571 657 35,000  Level FlightAware
10:40AM 38.2052 -82.1436 55° Northeast 571 657 35,000  Level FlightAware ADS-B
10:40AM 38.2281 -82.1060 52° Northeast 569 655 35,000  Level FlightAware ADS-B
10:41AM 38.2840 -82.0240 49° Northeast 567 652 35,000  Level FlightAware
10:42AM 38.3530 -81.9230 49° Northeast 564 649 35,000  Level FlightAware
10:42AM 38.4130 -81.8360 49° Northeast 563 648 35,000  Level FlightAware
10:43AM 38.4640 -81.7610 49° Northeast 562 647 35,000  Level FlightAware
10:43AM 38.5320 -81.6640 48° Northeast 561 646 35,000  Level FlightAware
10:44AM 38.5850 -81.5870 49° Northeast 560 644 35,000  Level FlightAware
10:44AM 38.6360 -81.5130 49° Northeast 559 643 35,000  Level FlightAware
10:45AM 38.7030 -81.4140 49° Northeast 557 641 35,000  Level FlightAware
10:46AM 38.7730 -81.3120 49° Northeast 555 639 35,000  Level FlightAware
10:46AM 38.8500 -81.1990 49° Northeast 553 636 35,000  Level FlightAware
10:47AM 38.9070 -81.1150 49° Northeast 551 634 35,000  Level FlightAware
10:48AM 38.9610 -81.0340 49° Northeast 548 631 35,000  Level FlightAware
10:48AM 39.0290 -80.9330 49° Northeast 546 628 35,000  Level FlightAware
10:49AM 39.0820 -80.8540 49° Northeast 546 628 35,000  Level FlightAware
10:50AM 39.1710 -80.7210 49° Northeast 538 619 35,000  Level FlightAware
10:50AM 39.2370 -80.6240 49° Northeast 538 619 35,000  Level FlightAware
10:51AM 39.3000 -80.5270 50° Northeast 536 617 35,000  Level FlightAware
10:52AM 39.3510 -80.4510 49° Northeast 536 617 35,000  Level FlightAware
10:52AM 39.4070 -80.3670 49° Northeast 537 618 35,000  Level FlightAware
10:53AM 39.4580 -80.2900 49° Northeast 539 620 35,000  Level FlightAware
10:53AM 39.5160 -80.2000 50° Northeast 539 620 35,000  Level FlightAware
10:54AM 39.5700 -80.1190 49° Northeast 539 620 35,000  Level FlightAware
10:55AM 39.6510 -79.9950 50° Northeast 542 624 35,000  Level FlightAware
10:56AM 39.7250 -79.8820 50° Northeast 545 627 35,000  Level FlightAware
10:56AM 39.8020 -79.7640 50° Northeast 547 629 35,000  Level FlightAware
10:57AM 39.8590 -79.6740 50° Northeast 547 629 35,000  Level FlightAware
10:57AM 39.9130 -79.5910 50° Northeast 548 631 35,000  Level FlightAware
10:58AM 39.9930 -79.4660 50° Northeast 548 631 35,000 60 Level FlightAware
10:59AM 40.0660 -79.3520 50° Northeast 548 631 35,100  Climbing FlightAware
11:00AM 40.1280 -79.2560 50° Northeast 548 631 35,000 -120 Descending FlightAware
11:00AM 40.2040 -79.1360 50° Northeast 549 632 35,000  Level FlightAware
11:01AM 40.2670 -79.0360 50° Northeast 548 631 35,000  Level FlightAware
11:02AM 40.3320 -78.9330 50° Northeast 547 629 35,000 60 Level FlightAware
11:02AM 40.4030 -78.8210 50° Northeast 547 629 35,100  Climbing FlightAware
11:03AM 40.4560 -78.7360 51° Northeast 546 628 35,000 -60 Descending FlightAware
11:06AM 40.7310 -78.2950 50° Northeast 541 623 35,000  Level FlightAware
11:07AM 40.7958 -78.1839 50° Northeast 547 629 35,000  Level New York Center
11:08AM 40.8817 -78.0447 51° Northeast 547 629 35,100  Climbing New York Center
11:09AM 40.9978 -77.9197 39° Northeast 541 623 35,000 -60 Descending New York Center
11:10AM 41.1194 -77.8003 36° Northeast 535 616 35,000  Level New York Center
11:11AM 41.2433 -77.6806 36° Northeast 535 616 35,000  Level New York Center
11:12AM 41.4833 -77.4425 37° Northeast 543 625 35,000  Level Cleveland Center
11:13AM 41.6050 -77.3200 37° Northeast 543 625 35,000  Level Cleveland Center
11:14AM 41.7289 -77.1997 36° Northeast 543 625 35,000  Level Cleveland Center
11:17AM 41.9967 -76.9300 37° Northeast 544 626 35,000  Level Boston Center
11:18AM 42.1161 -76.8097 37° Northeast 544 626 35,000  Level Boston Center
11:19AM 42.2397 -76.6836 37° Northeast 544 626 35,000  Level Boston Center
11:20AM 42.3589 -76.5625 37° Northeast 543 625 35,000  Level Boston Center
11:21AM 42.4758 -76.4406 38° Northeast 538 619 35,000  Level Boston Center
11:22AM 42.5928 -76.3183 38° Northeast 533 613 35,000  Level Boston Center
11:23AM 42.7117 -76.1931 38° Northeast 533 613 35,000  Level Boston Center
11:24AM 42.8281 -76.0728 37° Northeast 533 613 35,000  Level Boston Center
11:25AM 42.9467 -75.9492 37° Northeast 533 613 35,000  Level Boston Center
11:26AM 43.0650 -75.8253 37° Northeast 528 608 35,000  Level Boston Center
11:27AM 43.1856 -75.6981 38° Northeast 533 613 35,000  Level Boston Center
11:28AM 43.3036 -75.5700 38° Northeast 533 613 35,000  Level Boston Center
11:29AM 43.4239 -75.4447 37° Northeast 539 620 35,000  Level Boston Center
11:34AM 44.0950 -74.7030 37° Northeast 544 626 35,000  Level FlightAware
11:35AM 44.1740 -74.6160 38° Northeast 542 624 35,000  Level FlightAware
11:36AM 44.2590 -74.5210 39° Northeast 543 625 35,000  Level FlightAware
11:36AM 44.3380 -74.4320 39° Northeast 545 627 35,000  Level FlightAware
11:37AM 44.4150 -74.3460 39° Northeast 545 627 35,000  Level FlightAware
11:38AM 44.5060 -74.2430 39° Northeast 546 628 35,000  Level FlightAware
11:38AM 44.5860 -74.1530 39° Northeast 545 627 35,000  Level FlightAware
11:39AM 44.6710 -74.0560 39° Northeast 543 625 35,000  Level FlightAware
11:40AM 44.7510 -73.9650 39° Northeast 545 627 35,000  Level FlightAware
11:40AM 44.8080 -73.9000 39° Northeast 545 627 35,000  Level FlightAware
11:41AM 44.8860 -73.8100 39° Northeast 546 628 35,000  Level FlightAware
11:42AM 45.0060 -73.6720 39° Northeast 549 632 35,000  Level FlightAware
11:43AM 45.0960 -73.5680 39° Northeast 550 633 35,000  Level FlightAware
11:43AM 45.1710 -73.4810 39° Northeast 551 634 35,000  Level FlightAware
11:44AM 45.2600 -73.3770 39° Northeast 551 634 35,000  Level FlightAware
11:45AM 45.3390 -73.2840 40° Northeast 551 634 35,000  Level FlightAware
11:46AM 45.4280 -73.1800 39° Northeast 549 632 35,000  Level FlightAware
11:46AM 45.5070 -73.0870 40° Northeast 548 631 35,000  Level FlightAware
11:47AM 45.5910 -72.9880 39° Northeast 548 631 35,000  Level FlightAware
11:48AM 45.6710 -72.8920 40° Northeast 549 632 35,000  Level FlightAware
11:48AM 45.7490 -72.7980 40° Northeast 549 632 35,000  Level FlightAware
11:49AM 45.8380 -72.6910 40° Northeast 551 634 35,000  Level FlightAware
11:50AM 45.9160 -72.5970 40° Northeast 552 635 35,000  Level FlightAware
11:51AM 46.0020 -72.4940 40° Northeast 551 634 35,000  Level FlightAware
11:51AM 46.0800 -72.3990 40° Northeast 551 634 35,000  Level FlightAware
11:52AM 46.1570 -72.3060 40° Northeast 551 634 35,000  Level FlightAware
11:53AM 46.2450 -72.1970 41° Northeast 551 634 35,000  Level FlightAware
11:53AM 46.3250 -72.1000 40° Northeast 551 634 35,000  Level FlightAware
11:54AM 46.4030 -72.0030 41° Northeast 553 636 35,000  Level FlightAware
11:55AM 46.4850 -71.9010 41° Northeast 555 639 35,000  Level FlightAware
11:55AM 46.5730 -71.7920 40° Northeast 555 639 35,000  Level FlightAware
11:56AM 46.6400 -71.7080 41° Northeast 555 639 35,000  Level FlightAware
11:57AM 46.6990 -71.6340 41° Northeast 556 640 35,000  Level FlightAware
11:57AM 46.7730 -71.5350 42° Northeast 555 639 35,000  Level FlightAware
11:58AM 46.8560 -71.4170 44° Northeast 554 638 35,000  Level FlightAware
11:58AM 46.9110 -71.3400 44° Northeast 553 636 35,000  Level FlightAware
11:59AM 46.9850 -71.2360 44° Northeast 553 636 35,000  Level FlightAware
12:00PM 47.0580 -71.1330 44° Northeast 552 635 35,000  Level FlightAware
12:01PM 47.1400 -71.0170 44° Northeast 550 633 35,000  Level FlightAware
12:01PM 47.2140 -70.9130 44° Northeast 550 633 35,000  Level FlightAware
12:02PM 47.2960 -70.7970 44° Northeast 550 633 35,000  Level FlightAware
12:03PM 47.3680 -70.6930 44° Northeast 548 631 35,000  Level FlightAware
12:03PM 47.4400 -70.5910 44° Northeast 543 625 35,000  Level FlightAware
12:04PM 47.5200 -70.4740 45° Northeast 541 623 35,000  Level FlightAware
12:05PM 47.5900 -70.3720 44° Northeast 539 620 35,000  Level FlightAware
12:05PM 47.6650 -70.2460 49° Northeast 539 620 35,000  Level FlightAware
12:06PM 47.7260 -70.1290 52° Northeast 538 619 35,000  Level FlightAware
12:07PM 47.7930 -69.9970 53° Northeast 537 618 35,000  Level FlightAware
12:08PM 47.8530 -69.8800 53° Northeast 536 617 35,000  Level FlightAware
12:08PM 47.9070 -69.7750 52° Northeast 534 615 35,000  Level FlightAware
12:09PM 47.9390 -69.7130 52° Northeast 535 616 35,000  Level FlightAware
12:10PM 48.1070 -69.3800 53° Northeast 536 617 35,000  Level FlightAware
12:11PM 48.1200 -69.3550 52° Northeast 536 617 35,000  Level FlightAware
12:12PM 48.1580 -69.2790 53° Northeast 536 617 35,000  Level FlightAware
12:12PM 48.1960 -69.2030 53° Northeast 536 617 35,000  Level FlightAware
12:13PM 48.2460 -69.1020 53° Northeast 536 617 35,000  Level FlightAware
12:13PM 48.2970 -69.0010 53° Northeast 536 617 35,000  Level FlightAware
12:14PM 48.3610 -68.8740 53° Northeast 536 617 35,000  Level FlightAware
12:15PM 48.4110 -68.7730 53° Northeast 536 617 35,000  Level FlightAware
12:16PM 48.4620 -68.6720 53° Northeast 536 617 35,000  Level FlightAware
12:16PM 48.5130 -68.5700 53° Northeast 536 617 35,000  Level FlightAware
12:17PM 48.5630 -68.4680 53° Northeast 536 617 35,000  Level FlightAware
12:18PM 48.6270 -68.3410 53° Northeast 536 617 35,000  Level FlightAware
12:18PM 48.6780 -68.2390 53° Northeast 536 617 35,000  Level FlightAware
12:19PM 48.7280 -68.1370 53° Northeast 536 617 35,000  Level FlightAware
12:20PM 48.7790 -68.0350 53° Northeast 536 617 35,000  Level FlightAware
12:20PM 48.8300 -67.9330 53° Northeast 536 617 35,000  Level FlightAware
12:21PM 48.9000 -67.3333 53° Northeast 540 621 35,000  Level Montreal Center
12:22PM 48.9667 -67.1500 61° Northeast 540 621 35,000  Level Montreal Center
12:23PM 49.0500 -66.9500 58° Northeast 540 621 35,000  Level Montreal Center
12:24PM 49.1167 -66.7333 65° Northeast 540 621 35,000  Level Montreal Center
12:24PM 49.1667 -66.6500 47° Northeast 540 621 35,000  Level Moncton Center
12:25PM 49.1833 -66.5667 73° East 540 621 35,000  Level Montreal Center
12:26PM 49.2667 -66.3333 61° Northeast 540 621 35,000  Level Montreal Center
12:27PM 49.3333 -66.1333 63° Northeast 540 621 35,000  Level Montreal Center
12:28PM 49.4167 -65.9333 57° Northeast 540 621 35,000  Level Montreal Center
12:28PM 49.4667 -65.8333 52° Northeast 540 621 35,000  Level Moncton Center
12:29PM 49.5333 -65.6667 58° Northeast 540 621 35,000  Level Moncton Center
12:30PM 49.5667 -65.5167 71° East 540 621 35,000  Level Montreal Center
12:31PM 49.6333 -65.3167 63° Northeast 540 621 35,000  Level Montreal Center
12:31PM 49.6833 -65.2333 47° Northeast 540 621 35,000  Level Gander Center
12:32PM 49.7500 -65.0333 63° Northeast 540 621 35,000  Level Gander Center
12:33PM 49.8333 -64.8000 61° Northeast 550 633 35,000  Level Gander Center
12:34PM 49.8500 -64.7167 73° East 540 621 35,000  Level Montreal Center
12:34PM 49.9000 -64.6000 56° Northeast 550 633 35,000  Level Gander Center
12:35PM 49.9833 -64.4000 57° Northeast 550 633 35,000  Level Gander Center
12:36PM 50.0000 -64.2833 77° East 550 633 35,000  Level Montreal Center
12:37PM 50.0667 -64.0500 66° East 550 633 35,000  Level Montreal Center
12:37PM 50.1000 -64.0000 44° Northeast 550 633 35,000  Level Gander Center
12:38PM 50.1333 -63.8500 71° East 550 633 35,000  Level Montreal Center
12:39PM 50.2167 -63.6500 57° Northeast 550 633 35,000  Level Montreal Center
12:39PM 50.2500 -63.5500 62° Northeast 550 633 35,000  Level Gander Center
12:40PM 50.3167 -63.3167 66° East 550 633 35,000  Level Gander Center
12:41PM 50.3833 -63.1167 62° Northeast 550 633 35,000  Level Gander Center
12:42PM 50.4667 -62.9167 57° Northeast 550 633 35,000  Level Gander Center
12:43PM 50.5333 -62.7000 64° Northeast 550 633 35,000  Level Gander Center
12:44PM 50.6000 -62.4667 66° East 550 633 35,000  Level Gander Center
12:45PM 50.6667 -62.2500 64° Northeast 550 633 35,000  Level Gander Center
12:46PM 50.7333 -62.0500 62° Northeast 550 633 35,000  Level Gander Center
12:47PM 50.8000 -61.8167 66° East 550 633 35,000  Level Gander Center
12:48PM 50.8667 -61.6000 64° Northeast 550 633 35,000  Level Gander Center
12:49PM 50.9333 -61.3833 64° Northeast 560 644 35,000  Level Gander Center
12:50PM 50.9833 -61.1833 68° East 550 633 35,000  Level Gander Center
12:51PM 51.0667 -60.9333 62° Northeast 550 633 35,000  Level Gander Center
12:52PM 51.1167 -60.7167 70° East 550 633 35,000  Level Gander Center
12:53PM 51.1833 -60.5167 62° Northeast 550 633 35,000  Level Gander Center
12:54PM 51.2500 -60.3000 64° Northeast 550 633 35,000  Level Gander Center
12:55PM 51.3167 -60.0500 67° East 550 633 35,000  Level Gander Center
12:56PM 51.3833 -59.8333 64° Northeast 550 633 35,000  Level Gander Center
12:57PM 51.4500 -59.6000 65° Northeast 550 633 35,000  Level Gander Center
12:58PM 51.5333 -59.4000 56° Northeast 550 633 35,000  Level Gander Center
12:59PM 51.5833 -59.1500 72° East 540 621 35,000  Level Gander Center
01:00PM 51.6500 -58.9667 60° Northeast 550 633 35,000  Level Gander Center
01:01PM 51.7333 -58.7500 58° Northeast 540 621 35,000  Level Gander Center
01:02PM 51.8000 -58.5167 65° Northeast 540 621 35,000  Level Gander Center
01:03PM 51.8667 -58.3000 63° Northeast 550 633 35,000  Level Gander Center
01:04PM 51.9333 -58.0833 63° Northeast 550 633 35,000  Level Gander Center
01:05PM 52.0000 -57.8667 63° Northeast 550 633 35,000  Level Gander Center
01:06PM 52.0667 -57.6333 65° Northeast 540 621 35,000  Level Gander Center
01:07PM 52.1333 -57.4167 63° Northeast 540 621 35,000  Level Gander Center
01:08PM 52.2000 -57.1833 65° Northeast 550 633 35,000  Level Gander Center
01:09PM 52.2667 -56.9667 63° Northeast 540 621 35,000  Level Gander Center
01:10PM 52.3000 -56.8500 65° Northeast 540 621 35,000  Level Gander Center
01:10PM 52.3167 -56.7667 72° East 540 621 35,000  Level Gander Center
01:11PM 52.3667 -56.6167 61° Northeast 550 633 35,000  Level Gander Center
01:11PM 52.4000 -56.5167 61° Northeast 540 621 35,000  Level Gander Center
01:12PM 52.4500 -56.3167 68° East 540 621 35,000  Level Gander Center
01:13PM 52.5333 -56.0500 63° Northeast 550 633 35,000  Level Gander Center
01:14PM 52.5500 -55.9500 75° East 550 633 35,000  Level Gander Center
01:14PM 52.5833 -55.8500 61° Northeast 540 621 35,000  Level Gander Center
01:15PM 52.6667 -55.6000 61° Northeast 550 633 35,000  Level Gander Center
01:16PM 52.6833 -55.4833 77° East 550 633 35,000  Level Gander Center
01:17PM 52.7500 -55.2500 65° Northeast 550 633 35,000  Level Gander Center
01:17PM 52.7667 -55.1667 72° East 550 633 35,000  Level Gander Center
01:18PM 52.8500 -54.9333 59° Northeast 550 633 35,000  Level Gander Center
01:19PM 52.9000 -54.7333 67° East 540 621 35,000  Level Gander Center
01:20PM 52.9333 -54.5833 70° East 540 621 35,000  Level Gander Center
01:20PM 52.9500 -54.5000 72° East 540 621 35,000  Level Gander Center
01:21PM 53.0000 -54.3500 61° Northeast 540 621 35,000  Level Gander Center
01:21PM 53.0000 -54.2667 90° East 540 621 35,000  Level Gander Center
01:22PM 53.0833 -54.0333 59° Northeast 540 621 35,000  Level Gander Center
01:23PM 53.1333 -53.8000 70° East 550 633 35,000  Level Gander Center
01:24PM 53.1833 -53.5500 71° East 550 633 35,000  Level Gander Center
01:25PM 53.2333 -53.3167 70° East 550 633 35,000  Level Gander Center
01:26PM 53.2833 -53.0833 70° East 550 633 35,000  Level Gander Center
01:27PM 53.3333 -52.8333 71° East 550 633 35,000  Level Gander Center
01:28PM 53.4000 -52.6000 64° Northeast 550 633 35,000  Level Gander Center
01:29PM 53.4500 -52.3667 70° East 550 633 35,000  Level Gander Center
01:30PM 53.5000 -52.1000 72° East 550 633 35,000  Level Gander Center
01:31PM 53.5667 -51.8667 64° Northeast 550 633 35,000  Level Gander Center
01:32PM 53.6167 -51.6167 71° East 550 633 35,000  Level Gander Center
01:33PM 53.6667 -51.3833 70° East 550 633 35,000  Level Gander Center
01:34PM 53.7333 -51.1500 64° Northeast 550 633 35,000  Level Gander Center
01:35PM 53.7667 -50.9000 77° East 550 633 35,000  Level Gander Center
01:36PM 53.8167 -50.6667 70° East 550 633 35,000  Level Gander Center
01:37PM 53.8667 -50.4000 72° East 550 633 35,000  Level Gander Center
01:38PM 53.9167 -50.1500 71° East 550 633 35,000  Level Gander Center
01:39PM 53.9667 -49.9167 70° East 550 633 35,000  Level Gander Center
01:42PM 54.0222 -49.5385 76° East  Level FlightAware Approximate
01:49PM 54.2606 -47.7996 76° East  Level FlightAware Approximate
01:50PM 54.2926 -47.5496 78° East  Level FlightAware Approximate
01:51PM 54.3241 -47.2992 78° East  Level FlightAware Approximate
01:52PM 54.3551 -47.0484 78° East  Level FlightAware Approximate
01:53PM 54.3856 -46.7973 78° East  Level FlightAware Approximate
01:54PM 54.4155 -46.5457 78° East  Level FlightAware Approximate
01:55PM 54.4449 -46.2938 79° East  Level FlightAware Approximate
01:56PM 54.4738 -46.0416 79° East  Level FlightAware Approximate
01:57PM 54.5021 -45.7890 79° East  Level FlightAware Approximate
01:58PM 54.5299 -45.5360 79° East  Level FlightAware Approximate
01:59PM 54.5572 -45.2827 79° East  Level FlightAware Approximate
02:00PM 54.5840 -45.0291 80° East  Level FlightAware Approximate
02:01PM 54.6102 -44.7752 80° East  Level FlightAware Approximate
02:02PM 54.6359 -44.5209 80° East  Level FlightAware Approximate
02:03PM 54.6611 -44.2663 80° East  Level FlightAware Approximate
02:04PM 54.6858 -44.0114 80° East  Level FlightAware Approximate
02:05PM 54.7099 -43.7561 81° East  Level FlightAware Approximate
02:06PM 54.7334 -43.5006 81° East  Level FlightAware Approximate
02:07PM 54.7564 -43.2448 81° East  Level FlightAware Approximate
02:08PM 54.7789 -42.9887 81° East  Level FlightAware Approximate
02:09PM 54.8009 -42.7323 81° East  Level FlightAware Approximate
02:10PM 54.8223 -42.4757 82° East  Level FlightAware Approximate
02:11PM 54.8431 -42.2188 82° East  Level FlightAware Approximate
02:12PM 54.8635 -41.9616 82° East  Level FlightAware Approximate
02:13PM 54.8832 -41.7041 82° East  Level FlightAware Approximate
02:14PM 54.9025 -41.4464 83° East  Level FlightAware Approximate
02:15PM 54.9212 -41.1885 83° East  Level FlightAware Approximate
02:16PM 54.9393 -40.9303 83° East  Level FlightAware Approximate
02:17PM 54.9569 -40.6719 83° East  Level FlightAware Approximate
02:18PM 54.9739 -40.4133 83° East  Level FlightAware Approximate
02:19PM 54.9904 -40.1544 84° East  Level FlightAware Approximate
02:20PM 55.0043 -39.8947 86° East  Level FlightAware Approximate
02:21PM 55.0145 -39.6348 86° East  Level FlightAware Approximate
02:22PM 55.0241 -39.3746 86° East  Level FlightAware Approximate
02:23PM 55.0332 -39.1144 86° East  Level FlightAware Approximate
02:24PM 55.0417 -38.8540 87° East  Level FlightAware Approximate
02:25PM 55.0496 -38.5935 87° East  Level FlightAware Approximate
02:26PM 55.0570 -38.3329 87° East  Level FlightAware Approximate
02:27PM 55.0639 -38.0723 87° East  Level FlightAware Approximate
02:28PM 55.0702 -37.8115 87° East  Level FlightAware Approximate
02:29PM 55.0759 -37.5507 88° East  Level FlightAware Approximate
02:30PM 55.0811 -37.2898 88° East  Level FlightAware Approximate
02:31PM 55.0857 -37.0288 88° East  Level FlightAware Approximate
02:32PM 55.0898 -36.7678 88° East  Level FlightAware Approximate
02:33PM 55.0933 -36.5067 89° East  Level FlightAware Approximate
02:34PM 55.0962 -36.2456 89° East  Level FlightAware Approximate
02:35PM 55.0986 -35.9845 89° East  Level FlightAware Approximate
02:36PM 55.1004 -35.7233 89° East  Level FlightAware Approximate
02:37PM 55.1017 -35.4621 89° East  Level FlightAware Approximate
02:38PM 55.1024 -35.2009 90° East  Level FlightAware Approximate
02:39PM 55.1026 -34.9397 90° East  Level FlightAware Approximate
02:40PM 55.1021 -34.6784 90° East  Level FlightAware Approximate
02:41PM 55.1012 -34.4172 90° East  Level FlightAware Approximate
02:42PM 55.0997 -34.1560 90° East  Level FlightAware Approximate
02:43PM 55.0976 -33.8949 91° East  Level FlightAware Approximate
02:44PM 55.0949 -33.6337 91° East  Level FlightAware Approximate
02:45PM 55.0917 -33.3726 91° East  Level FlightAware Approximate
02:46PM 55.0880 -33.1116 91° East  Level FlightAware Approximate
02:47PM 55.0836 -32.8506 92° East  Level FlightAware Approximate
02:48PM 55.0788 -32.5896 92° East  Level FlightAware Approximate
02:49PM 55.0733 -32.3288 92° East  Level FlightAware Approximate
02:50PM 55.0673 -32.0680 92° East  Level FlightAware Approximate
02:51PM 55.0608 -31.8072 92° East  Level FlightAware Approximate
02:52PM 55.0537 -31.5466 93° East  Level FlightAware Approximate
02:53PM 55.0460 -31.2861 93° East  Level FlightAware Approximate
02:54PM 55.0378 -31.0257 93° East  Level FlightAware Approximate
02:55PM 55.0290 -30.7653 93° East  Level FlightAware Approximate
02:56PM 55.0197 -30.5051 93° East  Level FlightAware Approximate
02:57PM 55.0098 -30.2451 94° East  Level FlightAware Approximate
02:58PM 54.9992 -29.9852 96° East  Level FlightAware Approximate
02:59PM 54.9841 -29.7260 96° East  Level FlightAware Approximate
03:00PM 54.9684 -29.4671 96° East  Level FlightAware Approximate
03:01PM 54.9523 -29.2083 96° East  Level FlightAware Approximate
03:02PM 54.9355 -28.9497 96° East  Level FlightAware Approximate
03:03PM 54.9183 -28.6914 97° East  Level FlightAware Approximate
03:04PM 54.9005 -28.4333 97° East  Level FlightAware Approximate
03:05PM 54.8821 -28.1754 97° East  Level FlightAware Approximate
03:06PM 54.8632 -27.9178 97° East  Level FlightAware Approximate
03:07PM 54.8437 -27.6604 97° East  Level FlightAware Approximate
03:08PM 54.8237 -27.4033 98° East  Level FlightAware Approximate
03:09PM 54.8032 -27.1464 98° East  Level FlightAware Approximate
03:10PM 54.7821 -26.8898 98° East  Level FlightAware Approximate
03:11PM 54.7604 -26.6334 98° East  Level FlightAware Approximate
03:12PM 54.7383 -26.3773 98° East  Level FlightAware Approximate
03:13PM 54.7156 -26.1215 99° East  Level FlightAware Approximate
03:14PM 54.6923 -25.8661 99° East  Level FlightAware Approximate
03:15PM 54.6685 -25.6108 99° East  Level FlightAware Approximate
03:16PM 54.6442 -25.3559 99° East  Level FlightAware Approximate
03:17PM 54.6194 -25.1014 99° East  Level FlightAware Approximate
03:18PM 54.5940 -24.8471 100° East  Level FlightAware Approximate
03:19PM 54.5681 -24.5931 100° East  Level FlightAware Approximate
03:20PM 54.5416 -24.3395 100° East  Level FlightAware Approximate
03:21PM 54.5146 -24.0862 100° East  Level FlightAware Approximate
03:22PM 54.4871 -23.8332 101° East  Level FlightAware Approximate
03:23PM 54.4591 -23.5806 101° East  Level FlightAware Approximate
03:24PM 54.4305 -23.3283 101° East  Level FlightAware Approximate
03:25PM 54.4014 -23.0764 101° East  Level FlightAware Approximate
03:26PM 54.3718 -22.8249 101° East  Level FlightAware Approximate
03:27PM 54.3417 -22.5737 102° East  Level FlightAware Approximate
03:28PM 54.3111 -22.3229 102° East  Level FlightAware Approximate
03:29PM 54.2799 -22.0724 102° East  Level FlightAware Approximate
03:30PM 54.2482 -21.8224 102° East  Level FlightAware Approximate
03:31PM 54.2160 -21.5727 102° East  Level FlightAware Approximate
03:32PM 54.1833 -21.3234 103° East  Level FlightAware Approximate
03:33PM 54.1500 -21.0745 103° East  Level FlightAware Approximate
03:34PM 54.1163 -20.8261 103° East  Level FlightAware Approximate
03:35PM 54.0820 -20.5780 103° East  Level FlightAware Approximate
03:36PM 54.0472 -20.3303 103° East  Level FlightAware Approximate
03:37PM 54.0120 -20.0831 104° East  Level FlightAware Approximate
03:38PM 53.9688 -19.8399 108° East  Level FlightAware Approximate
03:39PM 53.9215 -19.5991 108° East  Level FlightAware Approximate
03:40PM 53.8736 -19.3589 109° East  Level FlightAware Approximate
03:41PM 53.8253 -19.1191 109° East  Level FlightAware Approximate
03:42PM 53.7765 -18.8800 109° East  Level FlightAware Approximate
03:43PM 53.7272 -18.6413 109° East  Level FlightAware Approximate
03:44PM 53.6774 -18.4033 109° East  Level FlightAware Approximate
03:45PM 53.6272 -18.1658 110° East  Level FlightAware Approximate
03:46PM 53.5765 -17.9289 110° East  Level FlightAware Approximate
03:47PM 53.5253 -17.6926 110° East  Level FlightAware Approximate
03:48PM 53.4737 -17.4568 110° East  Level FlightAware Approximate
03:49PM 53.4216 -17.2216 110° East  Level FlightAware Approximate
03:50PM 53.3691 -16.9870 110° East  Level FlightAware Approximate
03:51PM 53.3161 -16.7529 111° Southeast  Level FlightAware Approximate
03:52PM 53.2626 -16.5195 111° Southeast  Level FlightAware Approximate
03:53PM 53.2087 -16.2866 111° Southeast  Level FlightAware Approximate
03:54PM 53.1543 -16.0543 111° Southeast  Level FlightAware Approximate
03:55PM 53.0995 -15.8226 111° Southeast  Level FlightAware Approximate
03:56PM 53.0442 -15.5915 112° Southeast  Level FlightAware Approximate
03:57PM 52.9885 -15.3610 112° Southeast  Level FlightAware Approximate
03:58PM 52.9323 -15.1311 112° Southeast  Level FlightAware Approximate
03:59PM 52.8761 -14.9016 112° Southeast  Level FlightAware Approximate
04:00PM 52.8199 -14.6723 112° Southeast  Level FlightAware Approximate
04:01PM 52.7632 -14.4436 112° Southeast  Level FlightAware Approximate
04:02PM 52.7061 -14.2155 112° Southeast  Level FlightAware Approximate
04:03PM 52.6486 -13.9880 113° Southeast  Level FlightAware Approximate
04:04PM 52.5906 -13.7611 113° Southeast  Level FlightAware Approximate
04:04PM 52.3420 -12.5010 113° Southeast 517 595 35,000  Level FlightAware
04:05PM 52.5322 -13.5349 113° Southeast  Level FlightAware Approximate
04:05PM 52.3100 -12.3850 114° Southeast 517 595 35,000  Level FlightAware
04:06PM 52.2590 -12.2020 114° Southeast 518 596 35,000  Level FlightAware
04:06PM 52.2190 -12.0610 115° Southeast 516 594 35,000  Level FlightAware
04:07PM 52.1860 -11.9460 115° Southeast 514 592 35,000  Level FlightAware
04:08PM 52.1390 -11.7790 115° Southeast 513 590 35,000  Level FlightAware
04:08PM 52.0890 -11.6070 115° Southeast 513 590 35,000  Level FlightAware
04:09PM 52.0520 -11.4800 115° Southeast 513 590 35,000  Level FlightAware
04:10PM 52.0190 -11.3640 115° Southeast 513 590 35,000  Level FlightAware
04:10PM 51.9660 -11.1830 115° Southeast 513 590 35,000  Level FlightAware
04:11PM 51.9330 -11.0710 116° Southeast 517 595 35,000  Level FlightAware
04:12PM 51.8920 -10.9330 116° Southeast 517 595 35,000  Level FlightAware
04:13PM 51.8150 -10.6760 116° Southeast 519 597 35,000  Level FlightAware
04:13PM 51.7890 -10.5900 116° Southeast 521 600 35,000  Level FlightAware
04:14PM 51.7360 -10.4140 116° Southeast 522 601 35,000  Level FlightAware
04:15PM 51.7030 -10.3050 116° Southeast 520 598 35,000  Level FlightAware
04:15PM 51.6480 -10.1250 116° Southeast 522 601 35,000  Level FlightAware
04:16PM 51.6270 -10.0570 116° Southeast 523 602 35,000  Level FlightAware
04:17PM 51.5730 -9.8820 116° Southeast 519 597 35,000  Level FlightAware
04:19PM 51.4216 -9.5009 122° Southeast  Level FlightAware Approximate
04:20PM 51.3407 -9.2996 123° Southeast  Level FlightAware Approximate
04:20PM 51.3830 -9.2780 123° Southeast 521 600 35,000  Level FlightAware
04:20PM 51.3290 -9.1070 117° Southeast 525 604 35,000 -1,200 Level FlightAware
04:21PM 51.2900 -8.9875 117° Southeast 474 545 33,500  Descending FlightAware UK
04:21PM 51.2830 -8.9670 117° Southeast 527 606 35,000  Climbing FlightAware
04:21PM 51.2631 -8.9049 117° Southeast 472 543 33,500 -2,700 Descending FlightAware UK
04:22PM 51.2431 -8.8428 117° Southeast 474 545 33,500 3,060 Level FlightAware UK
04:22PM 51.2330 -8.8100 117° Southeast 528 608 35,000  Climbing FlightAware
04:22PM 51.2096 -8.7393 117° Southeast 474 545 33,500 -2,460 Descending FlightAware UK
04:22PM 51.1896 -8.6772 117° Southeast 474 545 33,500 4,260 Level FlightAware UK
04:22PM 51.1870 -8.6700 117° Southeast 528 608 35,000  Climbing FlightAware
04:23PM 51.1694 -8.6151 117° Southeast 476 548 33,500 -2,760 Descending FlightAware UK
04:23PM 51.1496 -8.5527 117° Southeast 474 545 33,500 3,600 Level FlightAware UK
04:23PM 51.1460 -8.5350 117° Southeast 528 608 35,000  Climbing FlightAware
04:23PM 51.1247 -8.4685 117° Southeast 472 543 33,500 -2,580 Descending FlightAware UK
04:24PM 51.1063 -8.4050 115° Southeast 474 545 33,500 3,180 Level FlightAware UK
04:24PM 51.1050 -8.3950 115° Southeast 531 611 35,000  Climbing FlightAware
04:24PM 51.0754 -8.2992 115° Southeast 474 545 33,500 -2,400 Descending FlightAware UK
04:25PM 51.0567 -8.2358 115° Southeast 474 545 33,500 4,500 Level FlightAware UK
04:25PM 51.0570 -8.2360 115° Southeast 531 611 35,000  Climbing FlightAware
04:25PM 51.0376 -8.1717 115° Southeast 474 545 33,500 -2,700 Descending FlightAware UK
04:25PM 51.0182 -8.1086 116° Southeast 474 545 33,500 3,720 Level FlightAware UK
04:25PM 51.0150 -8.0970 116° Southeast 532 612 35,000  Climbing FlightAware
04:26PM 50.9923 -8.0246 116° Southeast 474 545 33,500  Descending FlightAware UK
04:26PM 50.9760 -7.9710 116° Southeast 534 615 35,000  Climbing FlightAware
04:26PM 50.9727 -7.9616 116° Southeast 474 545 33,500 -4,740 Descending FlightAware UK
04:26PM 50.9533 -7.8984 116° Southeast 476 548 33,500  Level FlightAware UK
04:26PM 50.9337 -7.8353 116° Southeast 476 548 33,500 4,260 Level FlightAware UK
04:26PM 50.9320 -7.8300 116° Southeast 534 615 35,000  Climbing FlightAware
04:27PM 50.9140 -7.7722 116° Southeast 476 548 33,500 -2,760 Descending FlightAware UK
04:27PM 50.8945 -7.7091 116° Southeast 474 545 33,500 3,600 Level FlightAware UK
04:27PM 50.8880 -7.6880 116° Southeast 534 615 35,000  Climbing FlightAware
04:27PM 50.8681 -7.6252 116° Southeast 474 545 33,500 -2,580 Descending FlightAware UK
04:28PM 50.8483 -7.5623 116° Southeast 474 545 33,500 3,900 Level FlightAware UK
04:28PM 50.8460 -7.5530 116° Southeast 535 616 35,000  Climbing FlightAware
04:28PM 50.8219 -7.4784 116° Southeast 476 548 33,500 -2,460 Descending FlightAware UK
04:28PM 50.8021 -7.4155 116° Southeast 476 548 33,500 3,420 Level FlightAware UK
04:29PM 50.7960 -7.3940 116° Southeast 534 615 35,000  Climbing FlightAware
04:29PM 50.7758 -7.3317 116° Southeast 476 548 33,500 -2,700 Descending FlightAware UK
04:29PM 50.7559 -7.2689 117° Southeast 476 548 33,500 3,720 Level FlightAware UK
04:29PM 50.7530 -7.2560 117° Southeast 535 616 35,000  Climbing FlightAware
04:30PM 50.7295 -7.1850 117° Southeast 476 548 33,500 -2,520 Descending FlightAware UK
04:30PM 50.7096 -7.1223 117° Southeast 476 548 33,500 3,300 Level FlightAware UK
04:30PM 50.7010 -7.0960 117° Southeast 537 618 35,000  Climbing FlightAware
04:30PM 50.6828 -7.0388 117° Southeast 476 548 33,500 -2,760 Descending FlightAware UK
04:31PM 50.6625 -6.9754 117° Southeast 476 548 33,500 3,600 Level FlightAware UK
04:31PM 50.6580 -6.9590 117° Southeast 536 617 35,000  Climbing FlightAware
04:31PM 50.6356 -6.8920 117° Southeast 476 548 33,500 -2,580 Descending FlightAware UK
04:31PM 50.6154 -6.8294 117° Southeast 478 550 33,500 3,900 Level FlightAware UK
04:31PM 50.6130 -6.8180 117° Southeast 536 617 35,000  Climbing FlightAware
04:32PM 50.5887 -6.7459 117° Southeast 476 548 33,500 -2,460 Descending FlightAware UK
04:32PM 50.5685 -6.6833 117° Southeast 476 548 33,500 3,420 Level FlightAware UK
04:32PM 50.5630 -6.6630 117° Southeast 537 618 35,000  Climbing FlightAware
04:32PM 50.5415 -6.6000 117° Southeast 476 548 33,500 -2,700 Descending FlightAware UK
04:33PM 50.5211 -6.5376 117° Southeast 476 548 33,500 3,720 Level FlightAware UK
04:33PM 50.5180 -6.5270 117° Southeast 538 619 35,000  Climbing FlightAware
04:33PM 50.4939 -6.4544 117° Southeast 478 550 33,500 -2,520 Descending FlightAware UK
04:33PM 50.4735 -6.3921 117° Southeast 478 550 33,500 4,080 Level FlightAware UK
04:33PM 50.4720 -6.3850 117° Southeast 538 619 35,000  Climbing FlightAware
04:34PM 50.4467 -6.3085 117° Southeast 482 555 33,500 -2,400 Descending FlightAware UK
04:34PM 50.4264 -6.2462 117° Southeast 480 552 33,500 3,600 Level FlightAware UK
04:34PM 50.4200 -6.2290 117° Southeast 537 618 35,000  Climbing FlightAware
04:34PM 50.3991 -6.1634 117° Southeast 478 550 33,500 -2,580 Descending FlightAware UK
04:35PM 50.3784 -6.1015 118° Southeast 478 550 33,500 3,180 Level FlightAware UK
04:35PM 50.3700 -6.0760 118° Southeast 536 617 35,000  Climbing FlightAware
04:35PM 50.3440 -5.9985 118° Southeast 478 550 33,500 -2,400 Descending FlightAware UK
04:36PM 50.3234 -5.9368 118° Southeast 480 552 33,500 4,500 Level FlightAware UK
04:36PM 50.3240 -5.9380 118° Southeast 535 616 35,000  Climbing FlightAware
04:36PM 50.3025 -5.8745 118° Southeast 478 550 33,500 -2,700 Descending FlightAware UK
04:36PM 50.2820 -5.8129 117° Southeast 478 550 33,500 3,720 Level FlightAware UK
04:36PM 50.2780 -5.8030 117° Southeast 535 616 35,000  Climbing FlightAware
04:37PM 50.2545 -5.7310 117° Southeast 478 550 33,500  Descending FlightAware UK
04:37PM 50.2370 -5.6780 118° Southeast 535 616 35,000  Climbing FlightAware
04:37PM 50.2338 -5.6696 118° Southeast 478 550 33,500 -4,740 Descending FlightAware UK
04:37PM 50.2131 -5.6083 118° Southeast 478 550 33,500  Level FlightAware UK
04:37PM 50.1923 -5.5471 118° Southeast 478 550 33,500 2,880 Level FlightAware UK
04:38PM 50.1790 -5.5080 118° Southeast 535 616 35,000  Climbing FlightAware
04:38PM 50.1577 -5.4452 118° Southeast 478 550 33,500  Descending FlightAware UK
04:38PM 50.1450 -5.4090 118° Southeast 534 615 35,000  Climbing FlightAware
04:38PM 50.1231 -5.3434 118° Southeast 476 548 33,500 -2,580 Descending FlightAware UK
04:39PM 50.1023 -5.2823 118° Southeast 478 550 33,500 3,180 Level FlightAware UK
04:39PM 50.0940 -5.2590 118° Southeast 535 616 35,000  Climbing FlightAware
04:39PM 50.0673 -5.1808 118° Southeast 478 550 33,500 -2,400 Descending FlightAware UK
04:40PM 50.0463 -5.1200 118° Southeast 478 550 33,500 4,500 Level FlightAware UK
04:40PM 50.0470 -5.1220 118° Southeast 535 616 35,000  Climbing FlightAware
04:40PM 50.0253 -5.0591 118° Southeast 478 550 33,500 -2,700 Descending FlightAware UK
04:40PM 50.0042 -4.9984 118° Southeast 478 550 33,500 3,720 Level FlightAware UK
04:40PM 50.0000 -4.9870 118° Southeast 535 616 35,000  Climbing FlightAware
04:41PM 49.9761 -4.9175 118° Southeast 478 550 33,500 -2,520 Descending FlightAware UK
04:41PM 49.9552 -4.8567 118° Southeast 480 552 33,500 4,080 Level FlightAware UK
04:41PM 49.9530 -4.8530 118° Southeast 534 615 35,000  Climbing FlightAware
04:41PM 49.9270 -4.7761 118° Southeast 478 550 33,500 -2,400 Descending FlightAware UK
04:42PM 49.9055 -4.7151 119° Southeast 478 550 33,500 3,600 Level FlightAware UK
04:42PM 49.9000 -4.7000 119° Southeast 533 613 35,000  Climbing FlightAware
04:42PM 49.8772 -4.6347 119° Southeast 478 550 33,500 -2,580 Descending FlightAware UK
04:42PM 49.8559 -4.5745 119° Southeast 478 550 33,500 3,180 Level FlightAware UK
04:42PM 49.8470 -4.5490 119° Southeast 534 615 35,000  Climbing FlightAware
04:43PM 49.8204 -4.4740 119° Southeast 480 552 33,500 -2,400 Descending FlightAware UK
04:43PM 49.7993 -4.4137 119° Southeast 478 550 33,500 4,500 Level FlightAware UK
04:43PM 49.8000 -4.4150 119° Southeast 533 613 35,000  Climbing FlightAware
04:43PM 49.7780 -4.3536 119° Southeast 478 550 33,500 -2,700 Descending FlightAware UK
04:44PM 49.7566 -4.2935 119° Southeast 478 550 33,500 3,720 Level FlightAware UK
04:44PM 49.7530 -4.2830 119° Southeast 533 613 35,000  Climbing FlightAware
04:44PM 49.7280 -4.2137 119° Southeast 480 552 33,500  Descending FlightAware UK
04:44PM 49.7110 -4.1670 119° Southeast 533 613 35,000  Climbing FlightAware
04:44PM 49.7064 -4.1532 119° Southeast 480 552 33,500 -4,500 Descending FlightAware UK
04:45PM 49.6850 -4.0935 119° Southeast 480 552 33,500  Level FlightAware UK
04:45PM 49.6647 -4.0328 117° Southeast 480 552 33,500 3,000 Level FlightAware UK
04:45PM 49.6560 -3.9930 117° Southeast 533 613 35,000  Climbing FlightAware
04:45PM 49.6433 -3.9237 117° Southeast 480 552 33,500  Descending FlightAware UK
04:46PM 49.6370 -3.8690 100° East 535 616 35,000  Climbing FlightAware
04:46PM 49.6359 -3.8564 100° East 484 557 33,500 -4,740 Descending FlightAware UK
04:46PM 49.6324 -3.7878 100° East 484 557 33,500  Level FlightAware UK
04:46PM 49.6279 -3.7199 96° East 482 555 33,500 2,880 Level FlightAware UK
04:47PM 49.6250 -3.6790 96° East 533 613 35,000  Climbing FlightAware
04:47PM 49.6209 -3.6068 96° East 480 552 33,500 -2,580 Descending FlightAware UK
04:47PM 49.6169 -3.5389 95° East 480 552 33,500 3,900 Level FlightAware UK
04:47PM 49.6160 -3.5250 95° East 532 612 35,000  Climbing FlightAware
04:48PM 49.6114 -3.4478 95° East 478 550 33,500 -2,460 Descending FlightAware UK
04:48PM 49.6074 -3.3801 95° East 478 550 33,500 3,420 Level FlightAware UK
04:48PM 49.6060 -3.3630 95° East 531 611 35,000  Climbing FlightAware
04:48PM 49.6016 -3.2900 95° East 478 550 33,500 -2,700 Descending FlightAware UK
04:49PM 49.5971 -3.2224 96° East 476 548 33,500 3,720 Level FlightAware UK
04:49PM 49.5960 -3.2090 96° East 531 611 35,000  Climbing FlightAware
04:49PM 49.5912 -3.1315 96° East 476 548 33,500 -2,520 Descending FlightAware UK
04:49PM 49.5866 -3.0631 96° East 476 548 33,500 4,080 Level FlightAware UK
04:49PM 49.5860 -3.0590 96° East 531 611 35,000  Climbing FlightAware
04:50PM 49.5807 -2.9737 96° East 478 550 33,500 -2,400 Descending FlightAware UK
04:50PM 49.5761 -2.9052 96° East 478 550 33,500 3,600 Level FlightAware UK
04:50PM 49.5750 -2.8850 96° East 533 613 35,000  Climbing FlightAware
04:50PM 49.5699 -2.8148 96° East 478 550 33,500 -2,580 Descending FlightAware UK
04:51PM 49.5651 -2.7470 96° East 478 550 33,500 3,900 Level FlightAware UK
04:51PM 49.5640 -2.7340 96° East 535 616 35,000 8,160 Climbing FlightAware
04:51PM 49.5622 -2.7058 96° East 535 616 35,000 -3,600 Level FlightAware ADS-B
04:51PM 49.5571 -2.6346 96° East 482 555 33,500 -2,460 Descending FlightAware UK
04:51PM 49.5523 -2.5667 96° East 480 552 33,500 4,260 Level FlightAware UK
04:51PM 49.5516 -2.5555 96° East 535 616 35,000  Climbing FlightAware ADS-B
04:52PM 49.5472 -2.4971 96° East 482 555 33,500 -2,760 Descending FlightAware UK
04:52PM 49.5422 -2.4291 96° East 482 555 33,500  Level FlightAware UK
04:52PM 49.5373 -2.3611 96° East 482 555 33,500  Level FlightAware UK
04:53PM 49.5323 -2.2931 96° East 480 552 33,500 4,980 Level FlightAware UK
04:53PM 49.5340 -2.3080 96° East 535 616 35,000  Climbing FlightAware
04:53PM 49.5273 -2.2242 96° East 486 559 33,500 -2,460 Descending FlightAware UK
04:53PM 49.5222 -2.1562 97° East 484 557 33,500 4,260 Level FlightAware UK
04:53PM 49.5230 -2.1590 97° East 534 615 35,000 5,580 Climbing FlightAware
04:54PM 49.5179 -2.0949 97° East 535 616 35,000  Level FlightAware ADS-B
04:54PM 49.5163 -2.0731 96° East 536 617 35,000 -3,480 Level FlightAware ADS-B
04:54PM 49.5104 -1.9976 96° East 480 552 33,500  Descending FlightAware UK
04:54PM 49.5085 -1.9693 96° East 536 617 35,000  Climbing FlightAware ADS-B
04:54PM 49.5035 -1.9065 96° East 484 557 33,500  Descending FlightAware UK
04:54PM 49.5016 -1.8795 96° East 536 617 35,000  Climbing FlightAware ADS-B
04:55PM 49.4968 -1.8163 96° East 488 562 33,500  Descending FlightAware UK
04:55PM 49.4953 -1.7983 96° East 535 616 35,000  Climbing FlightAware ADS-B
04:55PM 49.4894 -1.7251 96° East 484 557 33,500  Descending FlightAware UK
04:55PM 49.4878 -1.7027 96° East 534 615 35,000 8,160 Climbing FlightAware ADS-B
04:55PM 49.4863 -1.6839 97° East 533 613 35,000 -3,780 Level FlightAware ADS-B
04:56PM 49.4806 -1.6127 97° East 478 550 33,500  Descending FlightAware UK
04:56PM 49.4766 -1.5599 97° East 533 613 35,000  Climbing FlightAware ADS-B
04:56PM 49.4720 -1.5006 97° East 480 552 33,500  Descending FlightAware UK
04:56PM 49.4694 -1.4711 97° East 533 613 35,000 6,000 Climbing FlightAware ADS-B
04:56PM 49.4674 -1.4460 97° East 533 613 35,000 -4,140 Level FlightAware ADS-B
04:57PM 49.4629 -1.3873 97° East 482 555 33,500  Descending FlightAware UK
04:57PM 49.4584 -1.3357 97° East 533 613 35,000 5,580 Climbing FlightAware ADS-B
04:57PM 49.4577 -1.3271 97° East 533 613 35,000 -4,380 Level FlightAware ADS-B
04:57PM 49.4515 -1.2525 97° East 484 557 33,400 -360 Descending FlightAware UK
04:57PM 49.4466 -1.1995 97° East 533 613 34,800 4,080 Climbing FlightAware ADS-B
04:58PM 49.4454 -1.1852 97° East 524 603 34,700 -5,460 Descending FlightAware ADS-B
04:58PM 49.4396 -1.1191 97° East 462 532 32,900 -3,780 Descending FlightAware UK
04:58PM 49.4350 -1.0537 96° East 458 527 32,500 3,420 Descending FlightAware UK
04:58PM 49.4352 -1.0533 96° East 518 596 34,000 9,300 Climbing FlightAware ADS-B
04:58PM 49.4334 -1.0249 96° East 520 598 33,900 -5,220 Descending FlightAware ADS-B
04:59PM 49.4295 -0.9669 96° East 458 527 32,000 -1,080 Descending FlightAware UK
04:59PM 49.4266 -0.9209 96° East 517 595 33,400 4,860 Climbing FlightAware ADS-B
04:59PM 49.4259 -0.9105 96° East 509 586 33,300 -6,720 Descending FlightAware ADS-B
04:59PM 49.4223 -0.8583 96° East 448 516 31,400 -1,560 Descending FlightAware UK
04:59PM 49.4165 -0.8017 96° East 507 583 32,500 -1,680 Climbing FlightAware ADS-B
05:00PM 49.4097 -0.7305 96° East 438 504 30,400 -1,620 Descending FlightAware UK
05:00PM 49.4064 -0.6949 96° East 506 582 31,700 -1,440 Climbing FlightAware ADS-B
05:00PM 49.3997 -0.6240 96° East 436 502 29,700 -1,560 Descending FlightAware UK
05:00PM 49.3930 -0.5578 96° East 503 579 30,700 -1,860 Climbing FlightAware ADS-B
05:01PM 49.3870 -0.4968 96° East 426 490 28,600 -1,620 Descending FlightAware UK
05:01PM 49.3816 -0.4387 96° East 501 577 29,800 -1,380 Climbing FlightAware ADS-B
05:01PM 49.3752 -0.3706 96° East 426 490 27,800 -2,340 Descending FlightAware UK
05:02PM 49.3721 -0.3278 96° East 501 577 28,600 -2,400 Climbing FlightAware ADS-B
05:02PM 49.3668 -0.2647 96° East 440 506 26,600 -3,540 Descending FlightAware UK
05:02PM 49.3613 -0.1998 97° East 440 506 26,500 3,960 Descending FlightAware UK
05:02PM 49.3606 -0.1910 97° East 509 586 28,000  Climbing FlightAware ADS-B
05:02PM 49.3559 -0.1351 97° East 446 513 26,500  Descending FlightAware UK
05:03PM 49.3507 -0.0725 97° East 515 593 28,000  Climbing FlightAware ADS-B
05:03PM 49.3451 -0.0056 97° East 448 516 26,500  Descending FlightAware UK
05:03PM 49.3415 0.0375 97° East 516 594 28,000  Climbing FlightAware ADS-B
05:04PM 49.3354 0.1038 97° East 450 518 26,500  Descending FlightAware UK
05:04PM 49.3299 0.1476 97° East 518 596 28,000 3,480 Climbing FlightAware ADS-B
05:04PM 49.3270 0.1879 96° East 516 594 27,900 -4,140 Descending FlightAware ADS-B
05:04PM 49.3263 0.2560 96° East 446 513 26,000 -1,800 Descending FlightAware UK
05:05PM 49.3264 0.3130 96° East 506 582 26,900 -2,340 Climbing FlightAware ADS-B
05:05PM 49.3268 0.3853 96° East 438 504 24,600 -4,620 Descending FlightAware UK
05:05PM 49.3270 0.4491 90° East 434 499 24,000 1,320 Descending FlightAware UK
05:05PM 49.3265 0.4773 90° East 497 572 25,200 -2,160 Climbing FlightAware ADS-B
05:06PM 49.3263 0.5341 90° East 428 493 23,100 -2,220 Descending FlightAware UK
05:06PM 49.3250 0.5821 90° East 489 563 24,100 -2,220 Climbing FlightAware ADS-B
05:06PM 49.3240 0.6374 90° East 428 493 22,000 -2,040 Descending FlightAware UK
05:06PM 49.3229 0.6854 90° East 482 555 23,100 -2,040 Climbing FlightAware ADS-B
05:07PM 49.3216 0.7396 90° East 422 486 21,000 -2,220 Descending FlightAware UK
05:07PM 49.3202 0.7871 90° East 474 545 22,000 -2,220 Climbing FlightAware ADS-B
05:07PM 49.3187 0.8409 90° East 418 481 19,900 -2,160 Descending FlightAware UK
05:07PM 49.3173 0.8913 90° East 466 536 20,900 -2,040 Climbing FlightAware ADS-B
05:08PM 49.3158 0.9398 90° East 410 472 18,900 -4,740 Descending FlightAware UK
05:08PM 49.3141 0.9982 93° East 404 465 18,300 3,000 Descending FlightAware UK
05:08PM 49.3141 0.9986 93° East 460 529 19,800 -2,040 Climbing FlightAware ADS-B
05:08PM 49.3123 1.0559 93° East 404 465 17,700 -1,980 Descending FlightAware UK
05:08PM 49.3114 1.0979 93° East 451 519 18,800 -2,040 Climbing FlightAware ADS-B
05:09PM 49.3096 1.1514 93° East 394 453 16,700 -2,040 Descending FlightAware UK
05:09PM 49.3086 1.1936 93° East 444 511 17,800 -2,040 Climbing FlightAware ADS-B
05:09PM 49.3071 1.2465 93° East 392 451 15,700 -1,980 Descending FlightAware UK
05:09PM 49.3060 1.2881 93° East 439 505 16,800 -1,800 Climbing FlightAware ADS-B
05:10PM 49.3045 1.3391 93° East 388 447 14,800 -1,800 Descending FlightAware UK
05:10PM 49.3033 1.3802 93° East 430 495 15,900 -2,040 Climbing FlightAware ADS-B
05:10PM 49.3017 1.4302 93° East 380 437 13,800 -1,980 Descending FlightAware UK
05:10PM 49.3006 1.4747 93° East 426 490 14,900 -1,800 Climbing FlightAware ADS-B
05:11PM 49.2992 1.5197 93° East 378 435 12,900 -1,440 Descending FlightAware UK
05:11PM 49.2979 1.5648 93° East 415 478 14,200 -1,020 Climbing FlightAware ADS-B
05:11PM 49.2965 1.6087 93° East 368 423 12,400 -1,020 Descending FlightAware UK
05:11PM 49.2951 1.6536 93° East 407 468 13,700 -1,200 Climbing FlightAware ADS-B
05:12PM 49.2932 1.7111 93° East 362 417 11,700 -1,200 Descending FlightAware UK
05:12PM 49.2923 1.7429 93° East 402 463 13,100 -1,020 Climbing FlightAware ADS-B
05:12PM 49.2904 1.7968 93° East 362 417 11,200 -1,020 Descending FlightAware UK
05:12PM 49.2891 1.8281 93° East 400 460 12,600 -1,020 Climbing FlightAware ADS-B
05:13PM 49.2865 1.8820 93° East 356 410 10,700 -1,020 Descending FlightAware UK
05:13PM 49.2849 1.9128 93° East 392 451 12,100 -1,440 Climbing FlightAware ADS-B
05:13PM 49.2821 1.9662 93° East 352 405 10,000 -1,620 Descending FlightAware UK
05:13PM 49.2807 1.9972 93° East 394 453 11,300 -1,020 Climbing FlightAware ADS-B
05:14PM 49.2785 2.0502 93° East 354 407 9,500 -600 Descending FlightAware UK
05:14PM 49.2767 2.0818 93° East 391 450 11,000 -240 Climbing FlightAware ADS-B
05:14PM 49.2751 2.1343 93° East 352 405 9,400  Descending FlightAware UK
05:14PM 49.2726 2.1666 93° East 390 449 11,000 180 Climbing FlightAware ADS-B
05:15PM 49.2712 2.2161 93° East 352 405 9,500  Descending FlightAware UK
05:15PM 49.2686 2.2513 93° East 388 447 11,000 1,920 Climbing FlightAware ADS-B
05:16PM 49.2644 2.3395 94° East 392 451 11,000  Level FlightAware ADS-B
05:16PM 49.2601 2.4240 94° East 390 449 11,000 -180 Level FlightAware ADS-B
05:16PM 49.2576 2.4729 94° East 382 440 10,900 -960 Descending FlightAware ADS-B
05:17PM 49.2535 2.5279 96° East 378 435 10,400 -1,320 Descending FlightAware ADS-B
05:17PM 49.2500 2.5602 99° East 370 426 10,200 -780 Descending FlightAware ADS-B
05:17PM 49.2606 2.5811 52° Northeast 362 417 10,000 -540 Descending FlightAware ADS-B
05:18PM 49.2393 2.6512 115° Southeast 353 406 9,900 -600 Descending FlightAware ADS-B
05:18PM 49.2351 2.6873 100° East 345 397 9,700 -600 Descending FlightAware ADS-B
05:18PM 49.2309 2.7232 100° East 334 384 9,600 -420 Descending FlightAware ADS-B
05:18PM 49.2269 2.7581 100° East 326 375 9,500 -840 Descending FlightAware ADS-B
05:19PM 49.2226 2.7931 101° East 325 374 9,200 -1,200 Descending FlightAware ADS-B
05:19PM 49.2184 2.8280 100° East 326 375 8,900 -780 Descending FlightAware ADS-B
05:19PM 49.2142 2.8638 100° East 318 366 8,800 -600 Descending FlightAware ADS-B
05:19PM 49.2105 2.8988 99° East 311 358 8,600 -840 Descending FlightAware ADS-B
05:20PM 49.2075 2.9262 100° East 310 357 8,400 -1,200 Descending FlightAware ADS-B
05:20PM 49.2044 2.9545 99° East 311 358 8,100 -1,440 Descending FlightAware ADS-B
05:20PM 49.2032 2.9624 103° East 308 354 8,000 -1,740 Descending FlightAware ADS-B
05:20PM 49.2017 2.9693 108° East 305 351 7,900 -2,280 Descending FlightAware ADS-B
05:20PM 49.1985 2.9792 116° Southeast 301 346 7,700 -1,500 Descending FlightAware ADS-B
05:20PM 49.1962 2.9847 123° Southeast 298 343 7,700 -1,380 Level FlightAware ADS-B
05:20PM 49.1917 2.9931 130° Southeast 294 338 7,500 -1,800 Descending FlightAware ADS-B
05:20PM 49.1871 2.9996 137° Southeast 290 334 7,400 -1,740 Descending FlightAware ADS-B
05:20PM 49.1838 3.0033 144° Southeast 285 328 7,300 -900 Descending FlightAware ADS-B
05:20PM 49.1796 3.0072 149° Southeast 280 322 7,300 -900 Level FlightAware ADS-B
05:20PM 49.1760 3.0098 155° Southeast 277 319 7,200 -2,040 Descending FlightAware ADS-B
05:20PM 49.1723 3.0120 159° South 274 315 7,100 -2,040 Descending FlightAware ADS-B
05:20PM 49.1686 3.0136 164° South 270 311 7,000 -1,740 Descending FlightAware ADS-B
05:21PM 49.1638 3.0153 167° South 268 308 6,900 -1,140 Descending FlightAware ADS-B
05:21PM 49.1564 3.0174 170° South 265 305 6,800 -1,140 Descending FlightAware ADS-B
05:21PM 49.1450 3.0199 172° South 261 300 6,600 -1,500 Descending FlightAware ADS-B
05:21PM 49.1266 3.0237 172° South 258 297 6,200 -1,740 Descending FlightAware ADS-B
05:21PM 49.1076 3.0272 173° South 258 297 5,700 -1,380 Descending FlightAware ADS-B
05:22PM 49.0861 3.0311 173° South 261 300 5,400 -840 Descending FlightAware ADS-B
05:22PM 49.0721 3.0334 174° South 246 283 5,300 -420 Descending FlightAware ADS-B
05:22PM 49.0673 3.0334 180° South 240 276 5,300 -1,020 Level FlightAware ADS-B
05:22PM 49.0587 3.0306 192° South 232 267 5,100 -1,500 Descending FlightAware ADS-B
05:22PM 49.0547 3.0280 203° Southwest 228 262 5,000 -780 Descending FlightAware ADS-B
05:22PM 49.0516 3.0251 212° Southwest 227 261 5,000 -780 Level FlightAware ADS-B
05:22PM 49.0484 3.0214 217° Southwest 226 260 4,900 -1,500 Descending FlightAware ADS-B
05:22PM 49.0453 3.0173 221° Southwest 224 258 4,800 -600 Descending FlightAware ADS-B
05:22PM 49.0398 3.0091 224° Southwest 217 250 4,800 -540 Level FlightAware ADS-B
05:23PM 49.0294 2.9929 226° Southwest 206 237 4,600 -660 Descending FlightAware ADS-B
05:23PM 49.0210 2.9797 226° Southwest 198 228 4,500 -780 Descending FlightAware ADS-B
05:23PM 49.0190 2.9763 228° Southwest 197 227 4,400 -2,040 Descending FlightAware ADS-B
05:23PM 49.0173 2.9727 234° Southwest 197 227 4,300 -1,500 Descending FlightAware ADS-B
05:23PM 49.0152 2.9673 239° Southwest 196 226 4,200 -780 Descending FlightAware ADS-B
05:23PM 49.0139 2.9631 244° Southwest 194 223 4,200 -900 Level FlightAware ADS-B
05:23PM 49.0128 2.9583 251° West 192 221 4,100 -900 Descending FlightAware ADS-B
05:23PM 49.0121 2.9545 254° West 188 216 4,100  Level FlightAware ADS-B
05:23PM 49.0116 2.9498 261° West 187 215 4,100 -900 Level FlightAware ADS-B
05:23PM 49.0114 2.9445 267° West 185 213 4,000 -780 Descending FlightAware ADS-B
05:23PM 49.0113 2.9401 268° West 183 211 4,000  Level FlightAware ADS-B
05:24PM 49.0116 2.9208 271° West 181 208 4,000  Level FlightAware ADS-B
05:24PM 49.0115 2.9139 269° West 180 207 4,000  Level FlightAware ADS-B
05:24PM 49.0110 2.9012 267° West 175 201 4,000 -300 Level FlightAware ADS-B
05:24PM 49.0101 2.8887 264° West 172 198 3,900 -240 Descending FlightAware ADS-B
05:24PM 49.0088 2.8716 263° West 169 194 3,900 -480 Level FlightAware ADS-B
05:25PM 49.0080 2.8578 265° West 174 200 3,700 -1,200 Descending FlightAware ADS-B
05:25PM 49.0069 2.8393 265° West 176 203 3,400 -1,140 Descending FlightAware ADS-B
05:25PM 49.0065 2.8307 266° West 174 200 3,300 -1,080 Descending FlightAware ADS-B
05:25PM 49.0058 2.8116 267° West 168 193 3,000 -900 Descending FlightAware ADS-B
05:25PM 49.0058 2.8074 270° West 165 190 3,000  Level FlightAware ADS-B
05:25PM 49.0060 2.8034 274° West 161 185 3,000 -1,020 Level FlightAware ADS-B
05:25PM 49.0063 2.8000 278° West 158 182 2,900 -780 Descending FlightAware ADS-B
05:25PM 49.0067 2.7952 277° West 157 181 2,900 -780 Level FlightAware ADS-B
05:25PM 49.0069 2.7909 274° West 156 180 2,800 -1,440 Descending FlightAware ADS-B
05:26PM 49.0068 2.7760 269° West 153 176 2,500 -1,200 Descending FlightAware ADS-B
05:26PM 49.0068 2.7689 270° West 151 174 2,400 -840 Descending FlightAware ADS-B
05:26PM 49.0066 2.7601 268° West 148 170 2,300 -780 Descending FlightAware ADS-B
05:26PM 49.0058 2.7441 266° West 145 167 2,100 -780 Descending FlightAware ADS-B
05:26PM 49.0051 2.7272 266° West 144 166 1,900 -960 Descending FlightAware ADS-B
05:27PM 49.0042 2.7108 265° West 144 166 1,600 -840 Descending FlightAware ADS-B
05:27PM 49.0034 2.6968 265° West 143 165 1,500 -540 Descending FlightAware ADS-B
05:27PM 49.0030 2.6862 267° West 141 162 1,400 -720 Descending FlightAware ADS-B
05:27PM 49.0022 2.6717 265° West 138 159 1,200 -660 Descending FlightAware ADS-B
05:28PM 49.0015 2.6582 265° West 140 161 1,100 -660 Descending FlightAware ADS-B
05:28PM 49.0014 2.6549 267° West 141 162 1,000 -1,200 Descending FlightAware ADS-B
05:28PM 49.0003 2.6382 264° West 143 165 700 -1,020 Descending FlightAware ADS-B
05:28PM 48.9998 2.6294 265° West 140 161 600 -600 Descending FlightAware ADS-B
05:28PM 48.9991 2.6167 265° West 137 158 500 -660 Descending FlightAware ADS-B
05:29PM 48.9983 2.6017 265° West 137 158 300 -780 Descending FlightAware ADS-B
05:34PM 47.6003 -1.7270 62° Northeast  Level Estimated
05:39PM 47.5937 -1.8050 62° Northeast  Level Estimated
05:40PM 47.6589 -1.6202 62° Northeast  Level Estimated
05:41PM 47.7239 -1.4349 62° Northeast  Level Estimated
05:42PM 47.7885 -1.2492 63° Northeast  Level Estimated